sensor_id;sensor_type;location;lat;lon;timestamp;P1;durP1;ratioP1;P2;durP2;ratioP2
32613;SDS011;19031;51.400;6.770;2023-06-10T00:01:47;5.78;;;4.68;;
32613;SDS011;19031;51.400;6.770;2023-06-10T00:04:13;5.00;;;4.10;;
32613;SDS011;19031;51.400;6.770;2023-06-10T00:06:40;6.90;;;5.05;;
32613;SDS011;19031;51.400;6.770;2023-06-10T00:09:06;8.05;;;4.70;;
32613;SDS011;19031;51.400;6.770;2023-06-10T00:11:39;7.50;;;4.78;;
32613;SDS011;19031;51.400;6.770;2023-06-10T00:14:05;6.38;;;4.30;;
32613;SDS011;19031;51.400;6.770;2023-06-10T00:16:31;6.22;;;4.38;;
32613;SDS011;19031;51.400;6.770;2023-06-10T00:18:58;7.43;;;4.97;;
32613;SDS011;19031;51.400;6.770;2023-06-10T00:21:28;5.22;;;4.72;;
32613;SDS011;19031;51.400;6.770;2023-06-10T00:23:55;6.32;;;4.57;;
32613;SDS011;19031;51.400;6.770;2023-06-10T00:26:24;8.50;;;5.28;;
32613;SDS011;19031;51.400;6.770;2023-06-10T00:28:51;5.85;;;4.40;;
32613;SDS011;19031;51.400;6.770;2023-06-10T00:31:17;6.80;;;4.53;;
32613;SDS011;19031;51.400;6.770;2023-06-10T00:33:43;7.55;;;4.18;;
32613;SDS011;19031;51.400;6.770;2023-06-10T00:36:08;6.93;;;4.60;;
32613;SDS011;19031;51.400;6.770;2023-06-10T00:38:34;9.38;;;4.72;;
32613;SDS011;19031;51.400;6.770;2023-06-10T00:41:00;7.40;;;4.85;;
32613;SDS011;19031;51.400;6.770;2023-06-10T00:43:25;6.85;;;4.57;;
32613;SDS011;19031;51.400;6.770;2023-06-10T00:45:51;4.82;;;3.92;;
32613;SDS011;19031;51.400;6.770;2023-06-10T00:48:17;6.93;;;4.68;;
32613;SDS011;19031;51.400;6.770;2023-06-10T00:50:43;8.80;;;5.15;;
32613;SDS011;19031;51.400;6.770;2023-06-10T00:53:11;6.10;;;4.88;;
32613;SDS011;19031;51.400;6.770;2023-06-10T00:55:37;10.40;;;4.72;;
32613;SDS011;19031;51.400;6.770;2023-06-10T00:58:03;8.30;;;4.95;;
32613;SDS011;19031;51.400;6.770;2023-06-10T01:00:29;6.78;;;4.50;;
32613;SDS011;19031;51.400;6.770;2023-06-10T01:02:55;7.20;;;5.80;;
32613;SDS011;19031;51.400;6.770;2023-06-10T01:05:21;7.18;;;4.57;;
32613;SDS011;19031;51.400;6.770;2023-06-10T01:13:07;6.85;;;4.35;;
32613;SDS011;19031;51.400;6.770;2023-06-10T01:15:36;8.23;;;4.70;;
32613;SDS011;19031;51.400;6.770;2023-06-10T01:20:30;7.55;;;5.28;;
32613;SDS011;19031;51.400;6.770;2023-06-10T01:22:58;7.60;;;5.05;;
32613;SDS011;19031;51.400;6.770;2023-06-10T01:25:25;9.90;;;5.65;;
32613;SDS011;19031;51.400;6.770;2023-06-10T01:33:26;9.18;;;5.60;;
32613;SDS011;19031;51.400;6.770;2023-06-10T01:35:55;6.82;;;5.10;;
32613;SDS011;19031;51.400;6.770;2023-06-10T01:38:22;8.57;;;5.10;;
32613;SDS011;19031;51.400;6.770;2023-06-10T01:40:51;11.15;;;5.97;;
32613;SDS011;19031;51.400;6.770;2023-06-10T01:43:20;6.60;;;5.35;;
32613;SDS011;19031;51.400;6.770;2023-06-10T01:45:46;7.43;;;5.47;;
32613;SDS011;19031;51.400;6.770;2023-06-10T01:48:11;10.95;;;5.57;;
32613;SDS011;19031;51.400;6.770;2023-06-10T01:50:37;10.20;;;5.95;;
32613;SDS011;19031;51.400;6.770;2023-06-10T01:53:03;10.30;;;5.72;;
32613;SDS011;19031;51.400;6.770;2023-06-10T01:55:30;6.82;;;5.50;;
32613;SDS011;19031;51.400;6.770;2023-06-10T01:57:56;7.45;;;5.10;;
32613;SDS011;19031;51.400;6.770;2023-06-10T02:00:22;8.10;;;5.68;;
32613;SDS011;19031;51.400;6.770;2023-06-10T02:02:47;8.65;;;5.70;;
32613;SDS011;19031;51.400;6.770;2023-06-10T02:05:13;10.65;;;6.18;;
32613;SDS011;19031;51.400;6.770;2023-06-10T02:07:39;9.52;;;6.03;;
32613;SDS011;19031;51.400;6.770;2023-06-10T02:10:05;10.20;;;6.07;;
32613;SDS011;19031;51.400;6.770;2023-06-10T02:12:31;9.05;;;5.95;;
32613;SDS011;19031;51.400;6.770;2023-06-10T02:14:56;7.45;;;5.68;;
32613;SDS011;19031;51.400;6.770;2023-06-10T02:17:22;7.25;;;6.10;;
32613;SDS011;19031;51.400;6.770;2023-06-10T02:19:48;6.97;;;5.53;;
32613;SDS011;19031;51.400;6.770;2023-06-10T02:22:19;9.30;;;5.65;;
32613;SDS011;19031;51.400;6.770;2023-06-10T02:24:45;9.60;;;5.88;;
32613;SDS011;19031;51.400;6.770;2023-06-10T02:27:11;12.18;;;5.68;;
32613;SDS011;19031;51.400;6.770;2023-06-10T02:29:36;10.38;;;6.00;;
32613;SDS011;19031;51.400;6.770;2023-06-10T02:32:02;9.40;;;6.00;;
32613;SDS011;19031;51.400;6.770;2023-06-10T02:34:28;8.25;;;6.40;;
32613;SDS011;19031;51.400;6.770;2023-06-10T02:36:54;11.73;;;6.78;;
32613;SDS011;19031;51.400;6.770;2023-06-10T02:39:21;8.48;;;6.40;;
32613;SDS011;19031;51.400;6.770;2023-06-10T02:41:47;8.18;;;5.90;;
32613;SDS011;19031;51.400;6.770;2023-06-10T02:44:12;10.75;;;6.28;;
32613;SDS011;19031;51.400;6.770;2023-06-10T02:46:38;8.88;;;6.13;;
32613;SDS011;19031;51.400;6.770;2023-06-10T02:49:03;8.07;;;5.85;;
32613;SDS011;19031;51.400;6.770;2023-06-10T02:51:29;9.43;;;5.85;;
32613;SDS011;19031;51.400;6.770;2023-06-10T02:53:54;10.90;;;6.63;;
32613;SDS011;19031;51.400;6.770;2023-06-10T02:56:20;6.88;;;5.65;;
32613;SDS011;19031;51.400;6.770;2023-06-10T02:58:46;10.18;;;6.20;;
32613;SDS011;19031;51.400;6.770;2023-06-10T03:01:13;9.90;;;6.30;;
32613;SDS011;19031;51.400;6.770;2023-06-10T03:03:39;7.07;;;5.60;;
32613;SDS011;19031;51.400;6.770;2023-06-10T03:06:07;10.02;;;6.22;;
32613;SDS011;19031;51.400;6.770;2023-06-10T03:08:35;11.75;;;5.75;;
32613;SDS011;19031;51.400;6.770;2023-06-10T03:11:01;13.50;;;6.78;;
32613;SDS011;19031;51.400;6.770;2023-06-10T03:13:26;8.80;;;6.05;;
32613;SDS011;19031;51.400;6.770;2023-06-10T03:15:52;8.40;;;5.68;;
32613;SDS011;19031;51.400;6.770;2023-06-10T03:18:18;6.97;;;5.97;;
32613;SDS011;19031;51.400;6.770;2023-06-10T03:20:43;9.45;;;5.90;;
32613;SDS011;19031;51.400;6.770;2023-06-10T03:23:09;8.90;;;6.00;;
32613;SDS011;19031;51.400;6.770;2023-06-10T03:25:35;10.25;;;6.43;;
32613;SDS011;19031;51.400;6.770;2023-06-10T03:28:00;10.32;;;6.15;;
32613;SDS011;19031;51.400;6.770;2023-06-10T03:30:29;9.90;;;6.60;;
32613;SDS011;19031;51.400;6.770;2023-06-10T03:32:54;7.68;;;6.13;;
32613;SDS011;19031;51.400;6.770;2023-06-10T03:35:20;9.32;;;7.10;;
32613;SDS011;19031;51.400;6.770;2023-06-10T03:37:46;11.02;;;6.47;;
32613;SDS011;19031;51.400;6.770;2023-06-10T03:40:11;8.70;;;6.60;;
32613;SDS011;19031;51.400;6.770;2023-06-10T03:42:37;10.05;;;6.93;;
32613;SDS011;19031;51.400;6.770;2023-06-10T03:45:02;10.82;;;6.88;;
32613;SDS011;19031;51.400;6.770;2023-06-10T03:47:33;9.85;;;7.30;;
32613;SDS011;19031;51.400;6.770;2023-06-10T03:50:00;10.48;;;7.53;;
32613;SDS011;19031;51.400;6.770;2023-06-10T03:52:26;10.13;;;6.93;;
32613;SDS011;19031;51.400;6.770;2023-06-10T03:54:51;8.30;;;6.47;;
32613;SDS011;19031;51.400;6.770;2023-06-10T03:57:17;10.98;;;7.03;;
32613;SDS011;19031;51.400;6.770;2023-06-10T03:59:42;12.52;;;7.20;;
32613;SDS011;19031;51.400;6.770;2023-06-10T04:02:08;7.40;;;6.28;;
32613;SDS011;19031;51.400;6.770;2023-06-10T04:04:34;8.73;;;6.82;;
32613;SDS011;19031;51.400;6.770;2023-06-10T04:06:59;9.90;;;7.65;;
32613;SDS011;19031;51.400;6.770;2023-06-10T04:09:25;10.35;;;7.32;;
32613;SDS011;19031;51.400;6.770;2023-06-10T04:11:51;10.13;;;6.40;;
32613;SDS011;19031;51.400;6.770;2023-06-10T04:14:16;9.32;;;7.45;;
32613;SDS011;19031;51.400;6.770;2023-06-10T04:16:42;10.18;;;7.57;;
32613;SDS011;19031;51.400;6.770;2023-06-10T04:19:07;10.07;;;7.93;;
32613;SDS011;19031;51.400;6.770;2023-06-10T04:21:33;17.23;;;7.85;;
32613;SDS011;19031;51.400;6.770;2023-06-10T04:23:59;14.32;;;7.60;;
32613;SDS011;19031;51.400;6.770;2023-06-10T04:26:24;13.02;;;8.20;;
32613;SDS011;19031;51.400;6.770;2023-06-10T04:28:50;12.45;;;7.80;;
32613;SDS011;19031;51.400;6.770;2023-06-10T04:31:16;14.43;;;7.75;;
32613;SDS011;19031;51.400;6.770;2023-06-10T04:33:42;10.65;;;8.13;;
32613;SDS011;19031;51.400;6.770;2023-06-10T04:36:07;12.15;;;8.95;;
32613;SDS011;19031;51.400;6.770;2023-06-10T04:38:33;11.95;;;8.25;;
32613;SDS011;19031;51.400;6.770;2023-06-10T04:40:58;11.05;;;7.95;;
32613;SDS011;19031;51.400;6.770;2023-06-10T04:43:24;11.95;;;8.40;;
32613;SDS011;19031;51.400;6.770;2023-06-10T04:45:49;13.15;;;8.20;;
32613;SDS011;19031;51.400;6.770;2023-06-10T04:48:15;12.07;;;9.27;;
32613;SDS011;19031;51.400;6.770;2023-06-10T04:50:41;13.00;;;8.23;;
32613;SDS011;19031;51.400;6.770;2023-06-10T04:53:06;17.17;;;8.43;;
32613;SDS011;19031;51.400;6.770;2023-06-10T04:55:32;12.52;;;8.00;;
32613;SDS011;19031;51.400;6.770;2023-06-10T04:57:59;11.75;;;8.60;;
32613;SDS011;19031;51.400;6.770;2023-06-10T05:00:24;11.52;;;8.23;;
32613;SDS011;19031;51.400;6.770;2023-06-10T05:02:50;10.20;;;8.52;;
32613;SDS011;19031;51.400;6.770;2023-06-10T05:05:17;13.10;;;9.25;;
32613;SDS011;19031;51.400;6.770;2023-06-10T05:07:43;11.55;;;7.82;;
32613;SDS011;19031;51.400;6.770;2023-06-10T05:10:08;13.32;;;8.77;;
32613;SDS011;19031;51.400;6.770;2023-06-10T05:12:34;10.77;;;7.60;;
32613;SDS011;19031;51.400;6.770;2023-06-10T05:15:00;11.40;;;8.45;;
32613;SDS011;19031;51.400;6.770;2023-06-10T05:17:26;10.70;;;8.23;;
32613;SDS011;19031;51.400;6.770;2023-06-10T05:19:52;11.10;;;8.52;;
32613;SDS011;19031;51.400;6.770;2023-06-10T05:22:18;14.60;;;8.57;;
32613;SDS011;19031;51.400;6.770;2023-06-10T05:24:44;10.98;;;8.50;;
32613;SDS011;19031;51.400;6.770;2023-06-10T05:27:10;13.60;;;8.68;;
32613;SDS011;19031;51.400;6.770;2023-06-10T05:29:35;11.38;;;8.05;;
32613;SDS011;19031;51.400;6.770;2023-06-10T05:32:01;9.02;;;7.18;;
32613;SDS011;19031;51.400;6.770;2023-06-10T05:34:31;12.73;;;7.68;;
32613;SDS011;19031;51.400;6.770;2023-06-10T05:36:56;15.88;;;8.43;;
32613;SDS011;19031;51.400;6.770;2023-06-10T05:39:22;12.95;;;8.50;;
32613;SDS011;19031;51.400;6.770;2023-06-10T05:41:48;13.20;;;8.43;;
32613;SDS011;19031;51.400;6.770;2023-06-10T05:44:13;13.27;;;7.90;;
32613;SDS011;19031;51.400;6.770;2023-06-10T05:46:39;11.80;;;7.55;;
32613;SDS011;19031;51.400;6.770;2023-06-10T05:49:05;12.65;;;7.72;;
32613;SDS011;19031;51.400;6.770;2023-06-10T05:51:30;9.77;;;7.32;;
32613;SDS011;19031;51.400;6.770;2023-06-10T05:53:56;9.75;;;7.10;;
32613;SDS011;19031;51.400;6.770;2023-06-10T05:56:21;12.05;;;8.52;;
32613;SDS011;19031;51.400;6.770;2023-06-10T05:58:47;9.82;;;7.03;;
32613;SDS011;19031;51.400;6.770;2023-06-10T06:01:13;8.90;;;7.10;;
32613;SDS011;19031;51.400;6.770;2023-06-10T06:03:39;10.68;;;6.75;;
32613;SDS011;19031;51.400;6.770;2023-06-10T06:06:05;9.57;;;6.65;;
32613;SDS011;19031;51.400;6.770;2023-06-10T06:08:30;8.65;;;6.40;;
32613;SDS011;19031;51.400;6.770;2023-06-10T06:10:56;11.10;;;6.40;;
32613;SDS011;19031;51.400;6.770;2023-06-10T06:13:22;8.50;;;6.53;;
32613;SDS011;19031;51.400;6.770;2023-06-10T06:15:47;9.07;;;6.20;;
32613;SDS011;19031;51.400;6.770;2023-06-10T06:18:13;11.35;;;6.88;;
32613;SDS011;19031;51.400;6.770;2023-06-10T06:20:38;9.90;;;6.22;;
32613;SDS011;19031;51.400;6.770;2023-06-10T06:23:04;12.68;;;6.43;;
32613;SDS011;19031;51.400;6.770;2023-06-10T06:25:29;11.60;;;6.28;;
32613;SDS011;19031;51.400;6.770;2023-06-10T06:27:55;10.45;;;6.05;;
32613;SDS011;19031;51.400;6.770;2023-06-10T06:30:21;9.05;;;5.60;;
32613;SDS011;19031;51.400;6.770;2023-06-10T06:32:46;8.65;;;5.45;;
32613;SDS011;19031;51.400;6.770;2023-06-10T06:35:12;8.38;;;5.65;;
32613;SDS011;19031;51.400;6.770;2023-06-10T06:37:40;8.40;;;5.32;;
32613;SDS011;19031;51.400;6.770;2023-06-10T06:40:06;17.20;;;6.70;;
32613;SDS011;19031;51.400;6.770;2023-06-10T06:42:32;9.90;;;5.78;;
32613;SDS011;19031;51.400;6.770;2023-06-10T06:44:57;9.05;;;5.60;;
32613;SDS011;19031;51.400;6.770;2023-06-10T06:47:24;8.18;;;5.90;;
32613;SDS011;19031;51.400;6.770;2023-06-10T06:49:49;7.60;;;4.63;;
32613;SDS011;19031;51.400;6.770;2023-06-10T06:52:15;10.88;;;5.20;;
32613;SDS011;19031;51.400;6.770;2023-06-10T06:54:41;10.63;;;4.95;;
32613;SDS011;19031;51.400;6.770;2023-06-10T06:57:07;7.22;;;4.70;;
32613;SDS011;19031;51.400;6.770;2023-06-10T06:59:33;7.20;;;4.80;;
32613;SDS011;19031;51.400;6.770;2023-06-10T07:01:58;8.88;;;4.72;;
32613;SDS011;19031;51.400;6.770;2023-06-10T07:04:24;7.18;;;4.47;;
32613;SDS011;19031;51.400;6.770;2023-06-10T07:06:50;6.63;;;4.22;;
32613;SDS011;19031;51.400;6.770;2023-06-10T07:09:15;7.55;;;5.18;;
32613;SDS011;19031;51.400;6.770;2023-06-10T07:11:41;7.97;;;4.63;;
32613;SDS011;19031;51.400;6.770;2023-06-10T07:14:06;5.50;;;4.53;;
32613;SDS011;19031;51.400;6.770;2023-06-10T07:16:32;9.80;;;4.20;;
32613;SDS011;19031;51.400;6.770;2023-06-10T07:18:58;8.80;;;4.60;;
32613;SDS011;19031;51.400;6.770;2023-06-10T07:21:23;9.70;;;4.50;;
32613;SDS011;19031;51.400;6.770;2023-06-10T07:23:49;7.40;;;4.40;;
32613;SDS011;19031;51.400;6.770;2023-06-10T07:26:18;7.32;;;4.32;;
32613;SDS011;19031;51.400;6.770;2023-06-10T07:28:44;11.63;;;5.03;;
32613;SDS011;19031;51.400;6.770;2023-06-10T07:31:09;7.95;;;4.35;;
32613;SDS011;19031;51.400;6.770;2023-06-10T07:33:36;9.00;;;4.85;;
32613;SDS011;19031;51.400;6.770;2023-06-10T07:36:04;7.22;;;4.85;;
32613;SDS011;19031;51.400;6.770;2023-06-10T07:38:30;6.95;;;4.60;;
32613;SDS011;19031;51.400;6.770;2023-06-10T07:40:55;6.90;;;4.05;;
32613;SDS011;19031;51.400;6.770;2023-06-10T07:43:21;9.18;;;4.78;;
32613;SDS011;19031;51.400;6.770;2023-06-10T07:45:47;5.32;;;4.35;;
32613;SDS011;19031;51.400;6.770;2023-06-10T07:48:12;5.50;;;4.15;;
32613;SDS011;19031;51.400;6.770;2023-06-10T07:50:38;6.63;;;4.30;;
32613;SDS011;19031;51.400;6.770;2023-06-10T07:53:05;7.63;;;3.90;;
32613;SDS011;19031;51.400;6.770;2023-06-10T07:55:30;7.75;;;4.60;;
32613;SDS011;19031;51.400;6.770;2023-06-10T07:57:56;7.22;;;4.57;;
32613;SDS011;19031;51.400;6.770;2023-06-10T08:00:22;6.90;;;4.32;;
32613;SDS011;19031;51.400;6.770;2023-06-10T08:02:48;8.68;;;3.95;;
32613;SDS011;19031;51.400;6.770;2023-06-10T08:05:14;7.32;;;4.30;;
32613;SDS011;19031;51.400;6.770;2023-06-10T08:07:40;8.18;;;4.47;;
32613;SDS011;19031;51.400;6.770;2023-06-10T08:10:06;5.07;;;3.78;;
32613;SDS011;19031;51.400;6.770;2023-06-10T08:12:32;7.88;;;4.55;;
32613;SDS011;19031;51.400;6.770;2023-06-10T08:14:59;6.40;;;3.80;;
32613;SDS011;19031;51.400;6.770;2023-06-10T08:17:25;9.45;;;4.25;;
32613;SDS011;19031;51.400;6.770;2023-06-10T08:19:50;8.95;;;4.38;;
32613;SDS011;19031;51.400;6.770;2023-06-10T08:22:16;8.63;;;4.13;;
32613;SDS011;19031;51.400;6.770;2023-06-10T08:24:42;14.95;;;4.53;;
32613;SDS011;19031;51.400;6.770;2023-06-10T08:27:08;8.75;;;3.97;;
32613;SDS011;19031;51.400;6.770;2023-06-10T08:29:33;6.18;;;3.97;;
32613;SDS011;19031;51.400;6.770;2023-06-10T08:31:59;6.65;;;4.78;;
32613;SDS011;19031;51.400;6.770;2023-06-10T08:34:25;8.38;;;5.07;;
32613;SDS011;19031;51.400;6.770;2023-06-10T08:36:50;7.10;;;4.50;;
32613;SDS011;19031;51.400;6.770;2023-06-10T08:39:18;8.25;;;4.32;;
32613;SDS011;19031;51.400;6.770;2023-06-10T08:41:46;7.32;;;4.90;;
32613;SDS011;19031;51.400;6.770;2023-06-10T08:44:30;5.72;;;4.10;;
32613;SDS011;19031;51.400;6.770;2023-06-10T08:46:56;6.45;;;4.32;;
32613;SDS011;19031;51.400;6.770;2023-06-10T08:49:24;6.75;;;3.90;;
32613;SDS011;19031;51.400;6.770;2023-06-10T08:51:51;7.88;;;4.22;;
32613;SDS011;19031;51.400;6.770;2023-06-10T08:54:22;7.57;;;4.18;;
32613;SDS011;19031;51.400;6.770;2023-06-10T08:56:52;7.57;;;4.45;;
32613;SDS011;19031;51.400;6.770;2023-06-10T08:59:20;7.55;;;3.90;;
32613;SDS011;19031;51.400;6.770;2023-06-10T09:01:47;6.07;;;4.00;;
32613;SDS011;19031;51.400;6.770;2023-06-10T09:04:13;7.68;;;4.53;;
32613;SDS011;19031;51.400;6.770;2023-06-10T09:06:38;5.43;;;4.38;;
32613;SDS011;19031;51.400;6.770;2023-06-10T09:09:05;7.32;;;4.20;;
32613;SDS011;19031;51.400;6.770;2023-06-10T09:11:32;8.25;;;4.20;;
32613;SDS011;19031;51.400;6.770;2023-06-10T09:13:58;7.45;;;4.20;;
32613;SDS011;19031;51.400;6.770;2023-06-10T09:16:24;7.78;;;4.93;;
32613;SDS011;19031;51.400;6.770;2023-06-10T09:18:50;5.88;;;3.85;;
32613;SDS011;19031;51.400;6.770;2023-06-10T09:21:21;8.57;;;4.85;;
32613;SDS011;19031;51.400;6.770;2023-06-10T09:23:47;8.77;;;4.57;;
32613;SDS011;19031;51.400;6.770;2023-06-10T09:26:13;6.28;;;3.97;;
32613;SDS011;19031;51.400;6.770;2023-06-10T09:28:38;6.13;;;4.20;;
32613;SDS011;19031;51.400;6.770;2023-06-10T09:31:05;8.27;;;4.50;;
32613;SDS011;19031;51.400;6.770;2023-06-10T09:33:38;6.25;;;3.95;;
32613;SDS011;19031;51.400;6.770;2023-06-10T09:36:05;8.70;;;5.05;;
32613;SDS011;19031;51.400;6.770;2023-06-10T09:38:31;8.65;;;5.03;;
32613;SDS011;19031;51.400;6.770;2023-06-10T09:40:58;4.70;;;3.78;;
32613;SDS011;19031;51.400;6.770;2023-06-10T09:43:42;6.00;;;4.38;;
32613;SDS011;19031;51.400;6.770;2023-06-10T09:46:19;5.97;;;3.53;;
32613;SDS011;19031;51.400;6.770;2023-06-10T09:48:46;8.10;;;3.80;;
32613;SDS011;19031;51.400;6.770;2023-06-10T09:51:15;7.55;;;4.80;;
32613;SDS011;19031;51.400;6.770;2023-06-10T09:53:48;8.05;;;4.50;;
32613;SDS011;19031;51.400;6.770;2023-06-10T09:56:17;8.13;;;5.43;;
32613;SDS011;19031;51.400;6.770;2023-06-10T09:58:44;6.40;;;4.53;;
32613;SDS011;19031;51.400;6.770;2023-06-10T10:01:11;6.78;;;4.38;;
32613;SDS011;19031;51.400;6.770;2023-06-10T10:03:45;9.93;;;4.82;;
32613;SDS011;19031;51.400;6.770;2023-06-10T10:06:12;10.77;;;5.05;;
32613;SDS011;19031;51.400;6.770;2023-06-10T10:08:39;7.15;;;4.53;;
32613;SDS011;19031;51.400;6.770;2023-06-10T10:11:05;8.90;;;4.47;;
32613;SDS011;19031;51.400;6.770;2023-06-10T10:13:32;7.32;;;4.68;;
32613;SDS011;19031;51.400;6.770;2023-06-10T10:16:00;7.28;;;5.00;;
32613;SDS011;19031;51.400;6.770;2023-06-10T10:18:29;7.57;;;5.07;;
32613;SDS011;19031;51.400;6.770;2023-06-10T10:20:57;7.50;;;4.70;;
32613;SDS011;19031;51.400;6.770;2023-06-10T10:23:33;7.97;;;4.53;;
32613;SDS011;19031;51.400;6.770;2023-06-10T10:26:06;6.88;;;3.90;;
32613;SDS011;19031;51.400;6.770;2023-06-10T10:28:37;6.15;;;4.53;;
32613;SDS011;19031;51.400;6.770;2023-06-10T10:31:38;5.93;;;4.10;;
32613;SDS011;19031;51.400;6.770;2023-06-10T10:34:09;8.32;;;4.80;;
32613;SDS011;19031;51.400;6.770;2023-06-10T10:36:40;14.25;;;4.10;;
32613;SDS011;19031;51.400;6.770;2023-06-10T10:39:06;7.38;;;4.45;;
32613;SDS011;19031;51.400;6.770;2023-06-10T10:41:32;8.15;;;4.78;;
32613;SDS011;19031;51.400;6.770;2023-06-10T10:44:00;7.28;;;4.80;;
32613;SDS011;19031;51.400;6.770;2023-06-10T10:46:26;6.90;;;4.35;;
32613;SDS011;19031;51.400;6.770;2023-06-10T10:48:52;6.45;;;4.25;;
32613;SDS011;19031;51.400;6.770;2023-06-10T10:51:19;7.40;;;4.20;;
32613;SDS011;19031;51.400;6.770;2023-06-10T10:54:04;6.90;;;4.43;;
32613;SDS011;19031;51.400;6.770;2023-06-10T10:56:39;5.00;;;4.03;;
32613;SDS011;19031;51.400;6.770;2023-06-10T10:59:25;6.65;;;4.10;;
32613;SDS011;19031;51.400;6.770;2023-06-10T11:02:07;8.00;;;4.28;;
32613;SDS011;19031;51.400;6.770;2023-06-10T11:04:33;4.15;;;3.28;;
32613;SDS011;19031;51.400;6.770;2023-06-10T11:07:05;7.88;;;4.13;;
32613;SDS011;19031;51.400;6.770;2023-06-10T11:09:31;7.63;;;4.33;;
32613;SDS011;19031;51.400;6.770;2023-06-10T11:11:57;4.85;;;4.15;;
32613;SDS011;19031;51.400;6.770;2023-06-10T11:14:30;8.68;;;4.50;;
32613;SDS011;19031;51.400;6.770;2023-06-10T11:16:58;8.30;;;4.28;;
32613;SDS011;19031;51.400;6.770;2023-06-10T11:19:34;5.68;;;3.70;;
32613;SDS011;19031;51.400;6.770;2023-06-10T11:22:01;7.93;;;4.80;;
32613;SDS011;19031;51.400;6.770;2023-06-10T11:24:31;8.93;;;4.57;;
32613;SDS011;19031;51.400;6.770;2023-06-10T11:32:44;5.25;;;3.90;;
32613;SDS011;19031;51.400;6.770;2023-06-10T11:35:16;6.00;;;4.20;;
32613;SDS011;19031;51.400;6.770;2023-06-10T11:37:43;5.65;;;4.25;;
32613;SDS011;19031;51.400;6.770;2023-06-10T11:40:08;7.07;;;4.80;;
32613;SDS011;19031;51.400;6.770;2023-06-10T11:42:38;8.32;;;4.18;;
32613;SDS011;19031;51.400;6.770;2023-06-10T11:45:05;8.30;;;4.53;;
32613;SDS011;19031;51.400;6.770;2023-06-10T11:47:33;5.65;;;3.58;;
32613;SDS011;19031;51.400;6.770;2023-06-10T11:49:59;8.55;;;4.32;;
32613;SDS011;19031;51.400;6.770;2023-06-10T11:52:28;6.05;;;4.13;;
32613;SDS011;19031;51.400;6.770;2023-06-10T11:54:57;6.85;;;4.57;;
32613;SDS011;19031;51.400;6.770;2023-06-10T11:57:22;4.90;;;3.85;;
32613;SDS011;19031;51.400;6.770;2023-06-10T11:59:48;7.03;;;5.32;;
32613;SDS011;19031;51.400;6.770;2023-06-10T12:02:16;6.95;;;4.47;;
32613;SDS011;19031;51.400;6.770;2023-06-10T12:04:44;5.97;;;4.15;;
32613;SDS011;19031;51.400;6.770;2023-06-10T12:07:16;5.82;;;3.92;;
32613;SDS011;19031;51.400;6.770;2023-06-10T12:09:46;5.75;;;3.72;;
32613;SDS011;19031;51.400;6.770;2023-06-10T12:12:11;6.03;;;4.53;;
32613;SDS011;19031;51.400;6.770;2023-06-10T12:14:56;5.75;;;4.18;;
32613;SDS011;19031;51.400;6.770;2023-06-10T12:17:24;6.57;;;4.18;;
32613;SDS011;19031;51.400;6.770;2023-06-10T12:19:58;4.97;;;3.83;;
32613;SDS011;19031;51.400;6.770;2023-06-10T12:22:24;7.00;;;4.10;;
32613;SDS011;19031;51.400;6.770;2023-06-10T12:25:04;6.68;;;4.35;;
32613;SDS011;19031;51.400;6.770;2023-06-10T12:27:31;4.72;;;3.90;;
32613;SDS011;19031;51.400;6.770;2023-06-10T12:29:59;5.32;;;3.88;;
32613;SDS011;19031;51.400;6.770;2023-06-10T12:32:35;5.68;;;4.45;;
32613;SDS011;19031;51.400;6.770;2023-06-10T12:35:05;5.43;;;4.03;;
32613;SDS011;19031;51.400;6.770;2023-06-10T12:37:32;5.15;;;3.70;;
32613;SDS011;19031;51.400;6.770;2023-06-10T12:40:01;5.57;;;3.92;;
32613;SDS011;19031;51.400;6.770;2023-06-10T12:42:28;8.73;;;4.57;;
32613;SDS011;19031;51.400;6.770;2023-06-10T12:44:55;7.57;;;3.60;;
32613;SDS011;19031;51.400;6.770;2023-06-10T12:47:34;7.88;;;3.97;;
32613;SDS011;19031;51.400;6.770;2023-06-10T12:50:05;5.45;;;4.03;;
32613;SDS011;19031;51.400;6.770;2023-06-10T12:52:32;6.85;;;4.60;;
32613;SDS011;19031;51.400;6.770;2023-06-10T12:54:57;9.25;;;3.95;;
32613;SDS011;19031;51.400;6.770;2023-06-10T12:57:24;6.80;;;4.20;;
32613;SDS011;19031;51.400;6.770;2023-06-10T12:59:49;7.28;;;4.00;;
32613;SDS011;19031;51.400;6.770;2023-06-10T13:02:17;5.60;;;4.00;;
32613;SDS011;19031;51.400;6.770;2023-06-10T13:04:45;8.30;;;4.63;;
32613;SDS011;19031;51.400;6.770;2023-06-10T13:07:11;6.03;;;4.20;;
32613;SDS011;19031;51.400;6.770;2023-06-10T13:09:37;5.97;;;3.95;;
32613;SDS011;19031;51.400;6.770;2023-06-10T13:12:03;5.93;;;4.13;;
32613;SDS011;19031;51.400;6.770;2023-06-10T13:14:29;6.15;;;4.72;;
32613;SDS011;19031;51.400;6.770;2023-06-10T13:16:55;5.45;;;4.15;;
32613;SDS011;19031;51.400;6.770;2023-06-10T13:19:21;5.68;;;4.07;;
32613;SDS011;19031;51.400;6.770;2023-06-10T13:21:47;4.72;;;4.03;;
32613;SDS011;19031;51.400;6.770;2023-06-10T13:24:12;5.15;;;3.92;;
32613;SDS011;19031;51.400;6.770;2023-06-10T13:26:38;4.93;;;3.80;;
32613;SDS011;19031;51.400;6.770;2023-06-10T13:29:04;5.28;;;3.63;;
32613;SDS011;19031;51.400;6.770;2023-06-10T13:31:30;7.32;;;4.68;;
32613;SDS011;19031;51.400;6.770;2023-06-10T13:33:57;4.47;;;3.97;;
32613;SDS011;19031;51.400;6.770;2023-06-10T13:36:23;9.00;;;4.22;;
32613;SDS011;19031;51.400;6.770;2023-06-10T13:38:49;10.63;;;4.22;;
32613;SDS011;19031;51.400;6.770;2023-06-10T13:41:15;4.10;;;3.70;;
32613;SDS011;19031;51.400;6.770;2023-06-10T13:43:40;5.63;;;4.20;;
32613;SDS011;19031;51.400;6.770;2023-06-10T13:46:06;4.63;;;3.95;;
32613;SDS011;19031;51.400;6.770;2023-06-10T13:48:32;4.95;;;4.03;;
32613;SDS011;19031;51.400;6.770;2023-06-10T13:50:58;5.03;;;4.18;;
32613;SDS011;19031;51.400;6.770;2023-06-10T13:53:24;4.97;;;3.97;;
32613;SDS011;19031;51.400;6.770;2023-06-10T13:55:50;4.78;;;3.85;;
32613;SDS011;19031;51.400;6.770;2023-06-10T13:58:16;4.72;;;4.03;;
32613;SDS011;19031;51.400;6.770;2023-06-10T14:00:42;5.35;;;3.95;;
32613;SDS011;19031;51.400;6.770;2023-06-10T14:03:07;5.13;;;3.67;;
32613;SDS011;19031;51.400;6.770;2023-06-10T14:05:33;5.18;;;4.03;;
32613;SDS011;19031;51.400;6.770;2023-06-10T14:07:59;6.78;;;3.97;;
32613;SDS011;19031;51.400;6.770;2023-06-10T14:10:25;5.35;;;3.80;;
32613;SDS011;19031;51.400;6.770;2023-06-10T14:12:50;5.72;;;4.53;;
32613;SDS011;19031;51.400;6.770;2023-06-10T14:15:16;6.53;;;3.38;;
32613;SDS011;19031;51.400;6.770;2023-06-10T14:17:42;7.43;;;4.28;;
32613;SDS011;19031;51.400;6.770;2023-06-10T14:20:08;4.65;;;3.85;;
32613;SDS011;19031;51.400;6.770;2023-06-10T14:22:34;5.25;;;3.72;;
32613;SDS011;19031;51.400;6.770;2023-06-10T14:25:00;8.68;;;4.20;;
32613;SDS011;19031;51.400;6.770;2023-06-10T14:27:25;5.13;;;4.60;;
32613;SDS011;19031;51.400;6.770;2023-06-10T14:29:51;7.68;;;4.15;;
32613;SDS011;19031;51.400;6.770;2023-06-10T14:32:16;8.90;;;4.70;;
32613;SDS011;19031;51.400;6.770;2023-06-10T14:34:42;8.02;;;4.88;;
32613;SDS011;19031;51.400;6.770;2023-06-10T14:37:09;6.50;;;3.70;;
32613;SDS011;19031;51.400;6.770;2023-06-10T14:39:35;6.05;;;4.32;;
32613;SDS011;19031;51.400;6.770;2023-06-10T14:42:01;8.68;;;4.75;;
32613;SDS011;19031;51.400;6.770;2023-06-10T14:44:26;6.47;;;4.13;;
32613;SDS011;19031;51.400;6.770;2023-06-10T14:46:52;5.30;;;3.67;;
32613;SDS011;19031;51.400;6.770;2023-06-10T14:49:17;8.23;;;4.18;;
32613;SDS011;19031;51.400;6.770;2023-06-10T14:51:43;6.88;;;4.72;;
32613;SDS011;19031;51.400;6.770;2023-06-10T14:54:09;8.60;;;4.78;;
32613;SDS011;19031;51.400;6.770;2023-06-10T14:56:35;6.57;;;3.63;;
32613;SDS011;19031;51.400;6.770;2023-06-10T14:59:01;7.60;;;4.63;;
32613;SDS011;19031;51.400;6.770;2023-06-10T15:01:26;7.70;;;5.18;;
32613;SDS011;19031;51.400;6.770;2023-06-10T15:03:52;6.97;;;3.75;;